sensor_id;sensor_type;location;lat;lon;timestamp;P1;durP1;ratioP1;P2;durP2;ratioP2
55700;SDS011;41604;43.142;20.512;2024-01-11T11:41:42;53.38;;;35.83;;
55700;SDS011;41604;43.142;20.512;2024-01-11T11:44:08;50.70;;;36.15;;
55700;SDS011;41604;43.142;20.512;2024-01-11T11:46:38;65.38;;;24.25;;
55700;SDS011;41604;43.142;20.512;2024-01-11T11:49:05;31.10;;;20.23;;
55700;SDS011;41604;43.142;20.512;2024-01-11T11:51:32;30.85;;;23.08;;
55700;SDS011;41604;43.142;20.512;2024-01-11T11:53:58;27.75;;;19.40;;
55700;SDS011;41604;43.142;20.512;2024-01-11T11:56:24;28.90;;;20.85;;
55700;SDS011;41604;43.142;20.512;2024-01-11T11:58:51;29.63;;;18.38;;
55700;SDS011;41604;43.142;20.512;2024-01-11T12:01:19;25.48;;;16.90;;
55700;SDS011;41604;43.142;20.512;2024-01-11T12:03:46;24.35;;;16.23;;
55700;SDS011;41604;43.142;20.512;2024-01-11T12:06:16;32.05;;;23.83;;
55700;SDS011;41604;43.142;20.512;2024-01-11T12:08:43;35.97;;;22.27;;
55700;SDS011;41604;43.142;20.512;2024-01-11T12:11:09;33.05;;;19.83;;
55700;SDS011;41604;43.142;20.512;2024-01-11T12:13:38;24.55;;;17.27;;
55700;SDS011;41604;43.142;20.512;2024-01-11T12:16:05;29.48;;;19.67;;
55700;SDS011;41604;43.142;20.512;2024-01-11T12:18:31;25.52;;;17.42;;
55700;SDS011;41604;43.142;20.512;2024-01-11T12:20:57;30.13;;;18.25;;
55700;SDS011;41604;43.142;20.512;2024-01-11T12:23:24;37.72;;;23.08;;
55700;SDS011;41604;43.142;20.512;2024-01-11T12:25:50;28.48;;;17.65;;
55700;SDS011;41604;43.142;20.512;2024-01-11T12:28:16;22.30;;;13.93;;
55700;SDS011;41604;43.142;20.512;2024-01-11T12:30:42;30.90;;;20.15;;
55700;SDS011;41604;43.142;20.512;2024-01-11T12:33:10;41.95;;;30.27;;
55700;SDS011;41604;43.142;20.512;2024-01-11T12:35:38;33.63;;;22.63;;
55700;SDS011;41604;43.142;20.512;2024-01-11T12:38:04;35.65;;;22.80;;
55700;SDS011;41604;43.142;20.512;2024-01-11T12:40:34;24.75;;;16.70;;
55700;SDS011;41604;43.142;20.512;2024-01-11T12:43:02;22.00;;;15.15;;
55700;SDS011;41604;43.142;20.512;2024-01-11T12:45:28;22.10;;;13.70;;
55700;SDS011;41604;43.142;20.512;2024-01-11T12:47:57;24.48;;;15.02;;
55700;SDS011;41604;43.142;20.512;2024-01-11T12:50:23;24.10;;;16.20;;
55700;SDS011;41604;43.142;20.512;2024-01-11T12:53:08;30.95;;;20.63;;
55700;SDS011;41604;43.142;20.512;2024-01-11T12:55:35;28.25;;;18.95;;
55700;SDS011;41604;43.142;20.512;2024-01-11T12:58:05;21.63;;;13.77;;
55700;SDS011;41604;43.142;20.512;2024-01-11T13:00:31;51.83;;;28.75;;
55700;SDS011;41604;43.142;20.512;2024-01-11T13:02:57;34.08;;;17.52;;
55700;SDS011;41604;43.142;20.512;2024-01-11T13:05:24;22.10;;;13.85;;
55700;SDS011;41604;43.142;20.512;2024-01-11T13:07:51;21.50;;;13.30;;
55700;SDS011;41604;43.142;20.512;2024-01-11T13:10:17;24.35;;;15.85;;
55700;SDS011;41604;43.142;20.512;2024-01-11T13:12:43;19.17;;;13.73;;
55700;SDS011;41604;43.142;20.512;2024-01-11T13:15:09;27.25;;;17.10;;
55700;SDS011;41604;43.142;20.512;2024-01-11T13:17:35;23.92;;;15.30;;
55700;SDS011;41604;43.142;20.512;2024-01-11T13:20:01;19.45;;;12.40;;
55700;SDS011;41604;43.142;20.512;2024-01-11T13:22:28;20.40;;;13.32;;
55700;SDS011;41604;43.142;20.512;2024-01-11T13:24:54;23.60;;;16.02;;
55700;SDS011;41604;43.142;20.512;2024-01-11T13:27:20;21.17;;;14.48;;
55700;SDS011;41604;43.142;20.512;2024-01-11T13:29:46;24.00;;;15.32;;
55700;SDS011;41604;43.142;20.512;2024-01-11T13:32:12;20.80;;;13.63;;
55700;SDS011;41604;43.142;20.512;2024-01-11T13:34:39;28.95;;;22.40;;
55700;SDS011;41604;43.142;20.512;2024-01-11T13:37:05;18.60;;;12.50;;
55700;SDS011;41604;43.142;20.512;2024-01-11T13:39:31;18.20;;;12.57;;
55700;SDS011;41604;43.142;20.512;2024-01-11T13:41:57;23.40;;;14.90;;
55700;SDS011;41604;43.142;20.512;2024-01-11T13:44:23;22.15;;;14.30;;
55700;SDS011;41604;43.142;20.512;2024-01-11T13:46:49;20.88;;;13.77;;
55700;SDS011;41604;43.142;20.512;2024-01-11T13:49:15;22.50;;;13.55;;
55700;SDS011;41604;43.142;20.512;2024-01-11T13:51:41;19.60;;;14.07;;
55700;SDS011;41604;43.142;20.512;2024-01-11T13:54:09;29.38;;;19.40;;
55700;SDS011;41604;43.142;20.512;2024-01-11T13:56:35;47.13;;;30.15;;
55700;SDS011;41604;43.142;20.512;2024-01-11T13:59:01;63.60;;;40.17;;
55700;SDS011;41604;43.142;20.512;2024-01-11T14:01:26;47.08;;;28.35;;
55700;SDS011;41604;43.142;20.512;2024-01-11T14:03:52;36.65;;;22.55;;
55700;SDS011;41604;43.142;20.512;2024-01-11T14:06:18;30.95;;;19.60;;
55700;SDS011;41604;43.142;20.512;2024-01-11T14:08:43;23.95;;;15.00;;
55700;SDS011;41604;43.142;20.512;2024-01-11T14:11:09;27.67;;;19.10;;
55700;SDS011;41604;43.142;20.512;2024-01-11T14:13:35;29.00;;;19.95;;
55700;SDS011;41604;43.142;20.512;2024-01-11T14:16:01;27.13;;;16.73;;
55700;SDS011;41604;43.142;20.512;2024-01-11T14:18:27;30.25;;;19.83;;
55700;SDS011;41604;43.142;20.512;2024-01-11T14:20:52;24.70;;;16.25;;
55700;SDS011;41604;43.142;20.512;2024-01-11T14:23:18;26.63;;;16.63;;
55700;SDS011;41604;43.142;20.512;2024-01-11T14:25:44;30.83;;;20.00;;
55700;SDS011;41604;43.142;20.512;2024-01-11T14:28:10;28.90;;;18.10;;
55700;SDS011;41604;43.142;20.512;2024-01-11T14:30:36;29.70;;;19.23;;
55700;SDS011;41604;43.142;20.512;2024-01-11T14:33:03;31.27;;;19.00;;
55700;SDS011;41604;43.142;20.512;2024-01-11T14:35:29;26.23;;;17.27;;
55700;SDS011;41604;43.142;20.512;2024-01-11T14:37:56;33.15;;;19.92;;
55700;SDS011;41604;43.142;20.512;2024-01-11T14:40:22;32.08;;;16.25;;
55700;SDS011;41604;43.142;20.512;2024-01-11T14:42:49;28.17;;;15.18;;
55700;SDS011;41604;43.142;20.512;2024-01-11T14:45:15;55.25;;;27.17;;
55700;SDS011;41604;43.142;20.512;2024-01-11T14:47:42;26.40;;;15.48;;
55700;SDS011;41604;43.142;20.512;2024-01-11T14:50:08;28.92;;;16.33;;
55700;SDS011;41604;43.142;20.512;2024-01-11T14:52:35;28.73;;;17.33;;
55700;SDS011;41604;43.142;20.512;2024-01-11T14:55:01;34.08;;;19.02;;
55700;SDS011;41604;43.142;20.512;2024-01-11T14:57:29;26.38;;;15.20;;
55700;SDS011;41604;43.142;20.512;2024-01-11T14:59:56;34.63;;;17.05;;
55700;SDS011;41604;43.142;20.512;2024-01-11T15:02:22;27.45;;;17.83;;
55700;SDS011;41604;43.142;20.512;2024-01-11T15:04:48;39.25;;;21.40;;
55700;SDS011;41604;43.142;20.512;2024-01-11T15:07:14;37.10;;;21.50;;
55700;SDS011;41604;43.142;20.512;2024-01-11T15:09:40;34.33;;;23.13;;
55700;SDS011;41604;43.142;20.512;2024-01-11T15:12:07;52.53;;;26.38;;
55700;SDS011;41604;43.142;20.512;2024-01-11T15:14:33;31.63;;;20.33;;
55700;SDS011;41604;43.142;20.512;2024-01-11T15:16:59;25.08;;;16.50;;
55700;SDS011;41604;43.142;20.512;2024-01-11T15:19:25;28.92;;;17.13;;
55700;SDS011;41604;43.142;20.512;2024-01-11T15:21:51;29.45;;;17.33;;
55700;SDS011;41604;43.142;20.512;2024-01-11T15:24:17;27.75;;;17.35;;
55700;SDS011;41604;43.142;20.512;2024-01-11T15:26:44;28.98;;;19.90;;
55700;SDS011;41604;43.142;20.512;2024-01-11T15:29:10;39.28;;;24.40;;
55700;SDS011;41604;43.142;20.512;2024-01-11T15:31:37;44.70;;;25.08;;
55700;SDS011;41604;43.142;20.512;2024-01-11T15:34:05;46.47;;;27.50;;
55700;SDS011;41604;43.142;20.512;2024-01-11T15:36:32;34.03;;;21.90;;
55700;SDS011;41604;43.142;20.512;2024-01-11T15:38:58;41.42;;;23.80;;
55700;SDS011;41604;43.142;20.512;2024-01-11T15:41:31;44.83;;;28.30;;
55700;SDS011;41604;43.142;20.512;2024-01-11T15:44:04;49.67;;;31.50;;
55700;SDS011;41604;43.142;20.512;2024-01-11T15:46:30;241.27;;;104.28;;
55700;SDS011;41604;43.142;20.512;2024-01-11T15:48:56;209.63;;;111.72;;
55700;SDS011;41604;43.142;20.512;2024-01-11T15:51:23;212.65;;;120.60;;
55700;SDS011;41604;43.142;20.512;2024-01-11T15:53:50;259.85;;;155.60;;
55700;SDS011;41604;43.142;20.512;2024-01-11T15:56:16;262.60;;;140.85;;
55700;SDS011;41604;43.142;20.512;2024-01-11T15:58:42;101.65;;;55.20;;
55700;SDS011;41604;43.142;20.512;2024-01-11T16:01:08;63.47;;;37.05;;
55700;SDS011;41604;43.142;20.512;2024-01-11T16:03:34;69.35;;;44.10;;
55700;SDS011;41604;43.142;20.512;2024-01-11T16:06:01;42.40;;;26.08;;
55700;SDS011;41604;43.142;20.512;2024-01-11T16:08:27;173.02;;;86.55;;
55700;SDS011;41604;43.142;20.512;2024-01-11T16:10:53;52.00;;;31.35;;
55700;SDS011;41604;43.142;20.512;2024-01-11T16:13:20;58.25;;;36.20;;
55700;SDS011;41604;43.142;20.512;2024-01-11T16:15:46;57.85;;;33.85;;
55700;SDS011;41604;43.142;20.512;2024-01-11T16:18:13;59.20;;;35.03;;
55700;SDS011;41604;43.142;20.512;2024-01-11T16:20:39;63.67;;;39.22;;
55700;SDS011;41604;43.142;20.512;2024-01-11T16:23:05;72.00;;;44.45;;
55700;SDS011;41604;43.142;20.512;2024-01-11T16:25:31;63.45;;;42.25;;
55700;SDS011;41604;43.142;20.512;2024-01-11T16:27:58;53.45;;;32.60;;
55700;SDS011;41604;43.142;20.512;2024-01-11T16:30:24;42.33;;;26.58;;
55700;SDS011;41604;43.142;20.512;2024-01-11T16:32:50;45.42;;;26.70;;
55700;SDS011;41604;43.142;20.512;2024-01-11T16:35:16;58.30;;;32.65;;
55700;SDS011;41604;43.142;20.512;2024-01-11T16:37:42;81.43;;;52.22;;
55700;SDS011;41604;43.142;20.512;2024-01-11T16:40:08;132.68;;;83.07;;
55700;SDS011;41604;43.142;20.512;2024-01-11T16:42:36;187.32;;;108.28;;
55700;SDS011;41604;43.142;20.512;2024-01-11T16:45:02;183.43;;;110.25;;
55700;SDS011;41604;43.142;20.512;2024-01-11T16:47:29;192.25;;;114.97;;
55700;SDS011;41604;43.142;20.512;2024-01-11T16:50:02;210.98;;;123.05;;
55700;SDS011;41604;43.142;20.512;2024-01-11T16:52:29;166.70;;;102.32;;
55700;SDS011;41604;43.142;20.512;2024-01-11T16:54:55;192.43;;;122.15;;
55700;SDS011;41604;43.142;20.512;2024-01-11T16:57:21;181.90;;;114.72;;
55700;SDS011;41604;43.142;20.512;2024-01-11T16:59:48;188.68;;;115.72;;
55700;SDS011;41604;43.142;20.512;2024-01-11T17:02:14;162.40;;;106.40;;
55700;SDS011;41604;43.142;20.512;2024-01-11T17:04:40;174.35;;;109.60;;
55700;SDS011;41604;43.142;20.512;2024-01-11T17:07:06;169.55;;;105.40;;
55700;SDS011;41604;43.142;20.512;2024-01-11T17:09:32;184.55;;;113.43;;
55700;SDS011;41604;43.142;20.512;2024-01-11T17:11:58;174.13;;;111.82;;
55700;SDS011;41604;43.142;20.512;2024-01-11T17:14:24;191.02;;;123.07;;
55700;SDS011;41604;43.142;20.512;2024-01-11T17:16:50;200.02;;;125.35;;
55700;SDS011;41604;43.142;20.512;2024-01-11T17:19:17;180.10;;;113.43;;
55700;SDS011;41604;43.142;20.512;2024-01-11T17:21:44;176.82;;;113.03;;
55700;SDS011;41604;43.142;20.512;2024-01-11T17:24:10;186.35;;;118.22;;
55700;SDS011;41604;43.142;20.512;2024-01-11T17:26:36;168.00;;;109.40;;
55700;SDS011;41604;43.142;20.512;2024-01-11T17:29:02;194.80;;;125.65;;
55700;SDS011;41604;43.142;20.512;2024-01-11T17:31:28;241.77;;;139.52;;
55700;SDS011;41604;43.142;20.512;2024-01-11T17:33:56;221.68;;;131.98;;
55700;SDS011;41604;43.142;20.512;2024-01-11T17:36:25;224.30;;;133.13;;
55700;SDS011;41604;43.142;20.512;2024-01-11T17:38:52;240.43;;;149.35;;
55700;SDS011;41604;43.142;20.512;2024-01-11T17:41:19;482.95;;;246.13;;
55700;SDS011;41604;43.142;20.512;2024-01-11T17:43:46;247.45;;;134.23;;
55700;SDS011;41604;43.142;20.512;2024-01-11T17:46:12;190.52;;;115.45;;
55700;SDS011;41604;43.142;20.512;2024-01-11T17:48:39;191.48;;;119.80;;
55700;SDS011;41604;43.142;20.512;2024-01-11T17:51:09;189.50;;;119.18;;
55700;SDS011;41604;43.142;20.512;2024-01-11T17:53:36;469.15;;;282.30;;
55700;SDS011;41604;43.142;20.512;2024-01-11T17:56:02;226.98;;;138.80;;
55700;SDS011;41604;43.142;20.512;2024-01-11T17:58:29;255.52;;;165.13;;
55700;SDS011;41604;43.142;20.512;2024-01-11T18:00:55;253.82;;;173.55;;
55700;SDS011;41604;43.142;20.512;2024-01-11T18:03:23;188.57;;;122.65;;
55700;SDS011;41604;43.142;20.512;2024-01-11T18:05:49;172.95;;;116.93;;
55700;SDS011;41604;43.142;20.512;2024-01-11T18:08:15;150.85;;;100.88;;
55700;SDS011;41604;43.142;20.512;2024-01-11T18:10:41;162.75;;;107.70;;
55700;SDS011;41604;43.142;20.512;2024-01-11T18:13:07;159.15;;;106.03;;
55700;SDS011;41604;43.142;20.512;2024-01-11T18:15:33;169.57;;;107.88;;
55700;SDS011;41604;43.142;20.512;2024-01-11T18:17:59;171.73;;;106.30;;
55700;SDS011;41604;43.142;20.512;2024-01-11T18:20:26;154.80;;;92.30;;
55700;SDS011;41604;43.142;20.512;2024-01-11T18:22:53;186.00;;;118.13;;
55700;SDS011;41604;43.142;20.512;2024-01-11T18:25:19;162.05;;;101.25;;
55700;SDS011;41604;43.142;20.512;2024-01-11T18:27:45;201.70;;;116.95;;
55700;SDS011;41604;43.142;20.512;2024-01-11T18:30:11;297.58;;;170.00;;
55700;SDS011;41604;43.142;20.512;2024-01-11T18:32:38;378.73;;;231.00;;
55700;SDS011;41604;43.142;20.512;2024-01-11T18:35:06;279.42;;;164.10;;
55700;SDS011;41604;43.142;20.512;2024-01-11T18:37:32;228.05;;;136.90;;
55700;SDS011;41604;43.142;20.512;2024-01-11T18:39:59;207.60;;;127.63;;
55700;SDS011;41604;43.142;20.512;2024-01-11T18:42:25;207.35;;;120.70;;
55700;SDS011;41604;43.142;20.512;2024-01-11T18:44:51;150.73;;;91.03;;
55700;SDS011;41604;43.142;20.512;2024-01-11T18:47:18;146.63;;;91.15;;
55700;SDS011;41604;43.142;20.512;2024-01-11T18:49:44;152.07;;;88.60;;
55700;SDS011;41604;43.142;20.512;2024-01-11T18:52:10;142.73;;;81.97;;
55700;SDS011;41604;43.142;20.512;2024-01-11T18:54:36;151.73;;;96.68;;
55700;SDS011;41604;43.142;20.512;2024-01-11T18:57:01;151.60;;;89.38;;
55700;SDS011;41604;43.142;20.512;2024-01-11T18:59:27;128.88;;;79.20;;
55700;SDS011;41604;43.142;20.512;2024-01-11T19:01:53;127.28;;;77.80;;
55700;SDS011;41604;43.142;20.512;2024-01-11T19:04:19;139.15;;;84.15;;
55700;SDS011;41604;43.142;20.512;2024-01-11T19:06:45;208.77;;;120.97;;
55700;SDS011;41604;43.142;20.512;2024-01-11T19:09:10;147.98;;;91.05;;
55700;SDS011;41604;43.142;20.512;2024-01-11T19:11:36;121.57;;;80.53;;
55700;SDS011;41604;43.142;20.512;2024-01-11T19:14:02;113.32;;;70.85;;
55700;SDS011;41604;43.142;20.512;2024-01-11T19:16:28;95.13;;;58.67;;
55700;SDS011;41604;43.142;20.512;2024-01-11T19:18:53;108.03;;;69.13;;
55700;SDS011;41604;43.142;20.512;2024-01-11T19:21:19;106.07;;;65.18;;
55700;SDS011;41604;43.142;20.512;2024-01-11T19:23:45;154.38;;;97.78;;
55700;SDS011;41604;43.142;20.512;2024-01-11T19:26:11;158.48;;;98.93;;
55700;SDS011;41604;43.142;20.512;2024-01-11T19:28:37;138.98;;;85.43;;
55700;SDS011;41604;43.142;20.512;2024-01-11T19:31:03;198.98;;;118.70;;
55700;SDS011;41604;43.142;20.512;2024-01-11T19:33:29;219.93;;;129.68;;
55700;SDS011;41604;43.142;20.512;2024-01-11T19:35:55;365.38;;;213.30;;
55700;SDS011;41604;43.142;20.512;2024-01-11T19:38:21;201.68;;;125.57;;
55700;SDS011;41604;43.142;20.512;2024-01-11T19:40:47;175.32;;;111.22;;
55700;SDS011;41604;43.142;20.512;2024-01-11T19:43:13;195.50;;;120.78;;
55700;SDS011;41604;43.142;20.512;2024-01-11T19:45:39;174.48;;;113.38;;
55700;SDS011;41604;43.142;20.512;2024-01-11T19:48:04;214.57;;;134.23;;
55700;SDS011;41604;43.142;20.512;2024-01-11T19:50:30;232.38;;;141.13;;
55700;SDS011;41604;43.142;20.512;2024-01-11T19:52:58;240.85;;;146.48;;
55700;SDS011;41604;43.142;20.512;2024-01-11T19:55:24;221.48;;;138.38;;
55700;SDS011;41604;43.142;20.512;2024-01-11T19:57:50;221.55;;;135.63;;
55700;SDS011;41604;43.142;20.512;2024-01-11T20:00:16;208.43;;;133.05;;
55700;SDS011;41604;43.142;20.512;2024-01-11T20:02:41;228.65;;;137.45;;
55700;SDS011;41604;43.142;20.512;2024-01-11T20:05:07;135.13;;;87.03;;
55700;SDS011;41604;43.142;20.512;2024-01-11T20:07:33;113.88;;;72.05;;
55700;SDS011;41604;43.142;20.512;2024-01-11T20:09:59;108.03;;;65.50;;
55700;SDS011;41604;43.142;20.512;2024-01-11T20:12:25;120.53;;;72.03;;
55700;SDS011;41604;43.142;20.512;2024-01-11T20:14:51;127.80;;;73.93;;
55700;SDS011;41604;43.142;20.512;2024-01-11T20:17:16;230.95;;;128.55;;
55700;SDS011;41604;43.142;20.512;2024-01-11T20:19:43;178.35;;;101.30;;
55700;SDS011;41604;43.142;20.512;2024-01-11T20:22:08;233.73;;;126.60;;
55700;SDS011;41604;43.142;20.512;2024-01-11T20:24:35;261.23;;;134.75;;
55700;SDS011;41604;43.142;20.512;2024-01-11T20:27:00;282.60;;;145.65;;
55700;SDS011;41604;43.142;20.512;2024-01-11T20:29:28;189.20;;;109.25;;
55700;SDS011;41604;43.142;20.512;2024-01-11T20:31:56;121.40;;;71.57;;
55700;SDS011;41604;43.142;20.512;2024-01-11T20:34:22;110.82;;;68.50;;
55700;SDS011;41604;43.142;20.512;2024-01-11T20:36:48;75.28;;;44.30;;
55700;SDS011;41604;43.142;20.512;2024-01-11T20:39:14;71.03;;;42.95;;
55700;SDS011;41604;43.142;20.512;2024-01-11T20:41:39;69.57;;;44.00;;
55700;SDS011;41604;43.142;20.512;2024-01-11T20:44:09;84.93;;;50.38;;
55700;SDS011;41604;43.142;20.512;2024-01-11T20:46:35;89.88;;;53.22;;
55700;SDS011;41604;43.142;20.512;2024-01-11T20:49:00;103.90;;;60.53;;
55700;SDS011;41604;43.142;20.512;2024-01-11T20:51:26;112.90;;;65.95;;
55700;SDS011;41604;43.142;20.512;2024-01-11T20:53:52;106.00;;;62.22;;
55700;SDS011;41604;43.142;20.512;2024-01-11T20:56:21;88.95;;;50.58;;
55700;SDS011;41604;43.142;20.512;2024-01-11T20:58:47;82.65;;;47.63;;
55700;SDS011;41604;43.142;20.512;2024-01-11T21:01:13;77.95;;;45.70;;
55700;SDS011;41604;43.142;20.512;2024-01-11T21:03:39;82.95;;;49.50;;
55700;SDS011;41604;43.142;20.512;2024-01-11T21:06:04;88.03;;;54.22;;
55700;SDS011;41604;43.142;20.512;2024-01-11T21:08:30;100.05;;;57.13;;
55700;SDS011;41604;43.142;20.512;2024-01-11T21:10:56;85.93;;;50.85;;
55700;SDS011;41604;43.142;20.512;2024-01-11T21:13:22;93.22;;;55.30;;
55700;SDS011;41604;43.142;20.512;2024-01-11T21:15:51;99.75;;;58.60;;
55700;SDS011;41604;43.142;20.512;2024-01-11T21:18:17;107.80;;;64.60;;
55700;SDS011;41604;43.142;20.512;2024-01-11T21:20:42;101.45;;;59.53;;
55700;SDS011;41604;43.142;20.512;2024-01-11T21:23:09;85.30;;;50.42;;
55700;SDS011;41604;43.142;20.512;2024-01-11T21:25:35;95.10;;;56.25;;
55700;SDS011;41604;43.142;20.512;2024-01-11T21:28:00;95.78;;;57.88;;
55700;SDS011;41604;43.142;20.512;2024-01-11T21:30:26;118.03;;;65.50;;
55700;SDS011;41604;43.142;20.512;2024-01-11T21:32:52;114.57;;;63.40;;
55700;SDS011;41604;43.142;20.512;2024-01-11T21:35:18;104.18;;;59.22;;
55700;SDS011;41604;43.142;20.512;2024-01-11T21:37:44;106.03;;;62.50;;
55700;SDS011;41604;43.142;20.512;2024-01-11T21:40:11;133.73;;;78.35;;
55700;SDS011;41604;43.142;20.512;2024-01-11T21:42:37;184.18;;;107.30;;
55700;SDS011;41604;43.142;20.512;2024-01-11T21:45:05;164.85;;;96.68;;
55700;SDS011;41604;43.142;20.512;2024-01-11T21:47:31;162.43;;;93.97;;
55700;SDS011;41604;43.142;20.512;2024-01-11T21:49:57;214.48;;;123.40;;
55700;SDS011;41604;43.142;20.512;2024-01-11T21:52:23;258.23;;;148.75;;
55700;SDS011;41604;43.142;20.512;2024-01-11T21:54:50;210.57;;;124.60;;
55700;SDS011;41604;43.142;20.512;2024-01-11T21:57:16;205.65;;;122.10;;
55700;SDS011;41604;43.142;20.512;2024-01-11T21:59:41;223.52;;;128.52;;
55700;SDS011;41604;43.142;20.512;2024-01-11T22:02:07;298.35;;;167.32;;
55700;SDS011;41604;43.142;20.512;2024-01-11T22:04:33;247.27;;;136.63;;
55700;SDS011;41604;43.142;20.512;2024-01-11T22:06:59;213.02;;;125.20;;
55700;SDS011;41604;43.142;20.512;2024-01-11T22:09:25;206.38;;;116.80;;
55700;SDS011;41604;43.142;20.512;2024-01-11T22:11:50;307.50;;;174.20;;
55700;SDS011;41604;43.142;20.512;2024-01-11T22:14:16;181.40;;;107.10;;
55700;SDS011;41604;43.142;20.512;2024-01-11T22:16:42;145.32;;;86.63;;
55700;SDS011;41604;43.142;20.512;2024-01-11T22:19:08;155.23;;;90.25;;
55700;SDS011;41604;43.142;20.512;2024-01-11T22:21:37;144.65;;;84.13;;
55700;SDS011;41604;43.142;20.512;2024-01-11T22:24:05;145.55;;;83.40;;
55700;SDS011;41604;43.142;20.512;2024-01-11T22:26:34;141.35;;;82.60;;
55700;SDS011;41604;43.142;20.512;2024-01-11T22:29:00;132.95;;;81.28;;
55700;SDS011;41604;43.142;20.512;2024-01-11T22:31:32;135.85;;;80.13;;
55700;SDS011;41604;43.142;20.512;2024-01-11T22:34:00;141.90;;;81.47;;
55700;SDS011;41604;43.142;20.512;2024-01-11T22:36:29;154.00;;;85.30;;
55700;SDS011;41604;43.142;20.512;2024-01-11T22:38:55;347.23;;;167.30;;
55700;SDS011;41604;43.142;20.512;2024-01-11T22:41:21;192.35;;;109.60;;
55700;SDS011;41604;43.142;20.512;2024-01-11T22:43:48;182.98;;;104.00;;
55700;SDS011;41604;43.142;20.512;2024-01-11T22:46:15;209.60;;;115.30;;
55700;SDS011;41604;43.142;20.512;2024-01-11T22:48:41;206.85;;;113.82;;
55700;SDS011;41604;43.142;20.512;2024-01-11T22:51:07;248.73;;;136.73;;
55700;SDS011;41604;43.142;20.512;2024-01-11T22:53:33;421.25;;;232.07;;
55700;SDS011;41604;43.142;20.512;2024-01-11T22:55:59;294.90;;;161.63;;
55700;SDS011;41604;43.142;20.512;2024-01-11T22:58:25;244.20;;;145.05;;
55700;SDS011;41604;43.142;20.512;2024-01-11T23:00:51;284.83;;;168.13;;
55700;SDS011;41604;43.142;20.512;2024-01-11T23:03:17;395.92;;;230.23;;
55700;SDS011;41604;43.142;20.512;2024-01-11T23:05:42;270.55;;;149.88;;
55700;SDS011;41604;43.142;20.512;2024-01-11T23:08:08;246.27;;;133.68;;
55700;SDS011;41604;43.142;20.512;2024-01-11T23:10:34;314.05;;;158.65;;
55700;SDS011;41604;43.142;20.512;2024-01-11T23:13:02;359.13;;;187.75;;
55700;SDS011;41604;43.142;20.512;2024-01-11T23:15:31;471.15;;;252.40;;
55700;SDS011;41604;43.142;20.512;2024-01-11T23:17:57;171.90;;;97.47;;
55700;SDS011;41604;43.142;20.512;2024-01-11T23:20:24;195.23;;;111.25;;
55700;SDS011;41604;43.142;20.512;2024-01-11T23:22:50;177.13;;;102.70;;
55700;SDS011;41604;43.142;20.512;2024-01-11T23:25:16;199.73;;;110.43;;
55700;SDS011;41604;43.142;20.512;2024-01-11T23:27:42;181.05;;;106.40;;
55700;SDS011;41604;43.142;20.512;2024-01-11T23:30:08;187.63;;;108.93;;
55700;SDS011;41604;43.142;20.512;2024-01-11T23:32:34;253.18;;;138.93;;
55700;SDS011;41604;43.142;20.512;2024-01-11T23:35:01;187.20;;;108.88;;
55700;SDS011;41604;43.142;20.512;2024-01-11T23:37:26;437.75;;;236.25;;
55700;SDS011;41604;43.142;20.512;2024-01-11T23:39:52;312.63;;;160.40;;
55700;SDS011;41604;43.142;20.512;2024-01-11T23:42:18;405.15;;;215.23;;
55700;SDS011;41604;43.142;20.512;2024-01-11T23:44:44;220.02;;;117.32;;
55700;SDS011;41604;43.142;20.512;2024-01-11T23:47:09;291.15;;;164.02;;
55700;SDS011;41604;43.142;20.512;2024-01-11T23:49:35;148.93;;;89.15;;
55700;SDS011;41604;43.142;20.512;2024-01-11T23:52:01;469.75;;;185.77;;
55700;SDS011;41604;43.142;20.512;2024-01-11T23:54:27;638.83;;;266.63;;
55700;SDS011;41604;43.142;20.512;2024-01-11T23:56:53;187.75;;;103.47;;
55700;SDS011;41604;43.142;20.512;2024-01-11T23:59:18;176.10;;;95.82;;
